sensor_id;sensor_type;location;lat;lon;timestamp;pressure;altitude;pressure_sealevel;temperature;humidity
61086;BME280;46967;48.876;2.136;2023-03-20T00:01:18;102005.56;;;4.86;87.56
61086;BME280;46967;48.876;2.136;2023-03-20T00:03:44;102003.00;;;4.86;87.47
61086;BME280;46967;48.876;2.136;2023-03-20T00:06:21;102004.66;;;4.83;87.53
61086;BME280;46967;48.876;2.136;2023-03-20T00:08:48;102003.78;;;4.81;87.44
61086;BME280;46967;48.876;2.136;2023-03-20T00:11:27;102001.13;;;4.75;87.78
61086;BME280;46967;48.876;2.136;2023-03-20T00:14:05;102000.22;;;4.71;87.63
61086;BME280;46967;48.876;2.136;2023-03-20T00:16:35;102007.97;;;4.74;87.59
61086;BME280;46967;48.876;2.136;2023-03-20T00:19:02;102016.53;;;4.73;87.63
61086;BME280;46967;48.876;2.136;2023-03-20T00:21:28;102025.03;;;4.69;87.01
61086;BME280;46967;48.876;2.136;2023-03-20T00:23:54;102020.72;;;4.65;87.34
61086;BME280;46967;48.876;2.136;2023-03-20T00:26:27;102017.25;;;4.64;87.84
61086;BME280;46967;48.876;2.136;2023-03-20T00:28:55;102019.81;;;4.63;87.75
61086;BME280;46967;48.876;2.136;2023-03-20T00:33:56;102013.72;;;4.56;87.97
61086;BME280;46967;48.876;2.136;2023-03-20T00:36:22;102024.00;;;4.54;88.25
61086;BME280;46967;48.876;2.136;2023-03-20T00:38:48;102022.25;;;4.53;88.05
61086;BME280;46967;48.876;2.136;2023-03-20T00:41:24;102014.50;;;4.49;87.94
61086;BME280;46967;48.876;2.136;2023-03-20T00:43:56;102018.72;;;4.45;87.88
61086;BME280;46967;48.876;2.136;2023-03-20T00:46:24;102017.00;;;4.44;87.66
61086;BME280;46967;48.876;2.136;2023-03-20T00:48:50;102011.81;;;4.41;87.76
61086;BME280;46967;48.876;2.136;2023-03-20T00:51:17;102006.63;;;4.38;87.88
61086;BME280;46967;48.876;2.136;2023-03-20T00:53:42;102008.31;;;4.38;88.06
61086;BME280;46967;48.876;2.136;2023-03-20T00:56:30;102012.56;;;4.35;87.86
61086;BME280;46967;48.876;2.136;2023-03-20T00:58:57;102001.38;;;4.32;88.08
61086;BME280;46967;48.876;2.136;2023-03-20T01:01:23;102010.81;;;4.31;88.38
61086;BME280;46967;48.876;2.136;2023-03-20T01:03:48;101994.44;;;4.28;88.28
61086;BME280;46967;48.876;2.136;2023-03-20T01:06:13;102002.16;;;4.28;88.15
61086;BME280;46967;48.876;2.136;2023-03-20T01:08:39;102009.00;;;4.26;87.44
61086;BME280;46967;48.876;2.136;2023-03-20T01:11:05;102011.56;;;4.26;87.92
61086;BME280;46967;48.876;2.136;2023-03-20T01:13:31;102012.41;;;4.26;88.20
61086;BME280;46967;48.876;2.136;2023-03-20T01:15:57;102018.41;;;4.24;87.89
61086;BME280;46967;48.876;2.136;2023-03-20T01:18:25;102013.22;;;4.22;88.32
61086;BME280;46967;48.876;2.136;2023-03-20T01:20:51;102026.06;;;4.21;88.59
61086;BME280;46967;48.876;2.136;2023-03-20T01:23:17;102025.09;;;4.15;88.66
61086;BME280;46967;48.876;2.136;2023-03-20T01:25:43;102028.53;;;4.16;88.55
61086;BME280;46967;48.876;2.136;2023-03-20T01:28:15;102022.50;;;4.12;88.46
61086;BME280;46967;48.876;2.136;2023-03-20T01:30:41;102037.88;;;4.09;89.01
61086;BME280;46967;48.876;2.136;2023-03-20T01:33:22;102035.25;;;4.06;89.11
61086;BME280;46967;48.876;2.136;2023-03-20T01:35:49;102031.00;;;4.08;88.51
61086;BME280;46967;48.876;2.136;2023-03-20T01:38:21;102027.47;;;4.03;88.58
61086;BME280;46967;48.876;2.136;2023-03-20T01:40:57;102025.75;;;4.02;89.15
61086;BME280;46967;48.876;2.136;2023-03-20T01:43:26;102022.31;;;4.02;89.44
61086;BME280;46967;48.876;2.136;2023-03-20T01:51:13;102006.16;;;4.10;88.08
61086;BME280;46967;48.876;2.136;2023-03-20T01:53:39;102002.75;;;4.10;88.26
61086;BME280;46967;48.876;2.136;2023-03-20T01:56:05;102000.94;;;4.04;88.37
61086;BME280;46967;48.876;2.136;2023-03-20T01:58:34;102000.91;;;4.03;88.45
61086;BME280;46967;48.876;2.136;2023-03-20T02:01:02;101994.00;;;3.98;88.09
61086;BME280;46967;48.876;2.136;2023-03-20T02:03:28;101996.50;;;3.94;88.63
61086;BME280;46967;48.876;2.136;2023-03-20T02:05:54;101995.59;;;3.90;88.80
61086;BME280;46967;48.876;2.136;2023-03-20T02:08:29;101998.19;;;3.92;89.29
61086;BME280;46967;48.876;2.136;2023-03-20T02:10:57;101993.81;;;3.88;89.24
61086;BME280;46967;48.876;2.136;2023-03-20T02:13:26;101995.50;;;3.86;89.37
61086;BME280;46967;48.876;2.136;2023-03-20T02:16:06;101995.59;;;3.90;89.27
61086;BME280;46967;48.876;2.136;2023-03-20T02:18:33;101994.63;;;3.85;89.30
61086;BME280;46967;48.876;2.136;2023-03-20T02:21:40;101999.72;;;3.84;89.81
61086;BME280;46967;48.876;2.136;2023-03-20T02:30:43;101992.88;;;3.83;88.90
61086;BME280;46967;48.876;2.136;2023-03-20T02:35:59;102002.28;;;3.82;89.03
61086;BME280;46967;48.876;2.136;2023-03-20T02:38:58;101997.06;;;3.77;89.52
61086;BME280;46967;48.876;2.136;2023-03-20T02:41:42;102005.53;;;3.72;89.47
61086;BME280;46967;48.876;2.136;2023-03-20T02:47:13;102005.44;;;3.67;89.86
61086;BME280;46967;48.876;2.136;2023-03-20T02:49:57;101995.19;;;3.67;89.82
61086;BME280;46967;48.876;2.136;2023-03-20T03:03:51;101978.69;;;3.54;90.14
61086;BME280;46967;48.876;2.136;2023-03-20T03:06:28;101979.63;;;3.59;89.75
61086;BME280;46967;48.876;2.136;2023-03-20T03:09:19;101979.56;;;3.56;89.79
61086;BME280;46967;48.876;2.136;2023-03-20T03:11:48;101981.34;;;3.59;89.57
61086;BME280;46967;48.876;2.136;2023-03-20T03:14:27;101983.03;;;3.57;90.01
61086;BME280;46967;48.876;2.136;2023-03-20T03:16:55;101987.28;;;3.56;90.29
61086;BME280;46967;48.876;2.136;2023-03-20T03:19:23;101987.31;;;3.58;90.96
61086;BME280;46967;48.876;2.136;2023-03-20T03:21:50;101988.16;;;3.57;90.69
61086;BME280;46967;48.876;2.136;2023-03-20T03:24:27;101986.47;;;3.59;90.99
61086;BME280;46967;48.876;2.136;2023-03-20T03:26:55;101984.78;;;3.59;90.93
61086;BME280;46967;48.876;2.136;2023-03-20T03:29:22;101984.00;;;3.63;91.34
61086;BME280;46967;48.876;2.136;2023-03-20T03:31:49;101980.56;;;3.65;91.33
61086;BME280;46967;48.876;2.136;2023-03-20T03:34:16;101980.53;;;3.63;91.36
61086;BME280;46967;48.876;2.136;2023-03-20T03:36:52;101976.28;;;3.62;91.27
61086;BME280;46967;48.876;2.136;2023-03-20T03:39:36;101966.88;;;3.64;90.71
61086;BME280;46967;48.876;2.136;2023-03-20T03:42:24;101961.75;;;3.64;90.19
61086;BME280;46967;48.876;2.136;2023-03-20T03:45:18;101968.56;;;3.62;90.83
61086;BME280;46967;48.876;2.136;2023-03-20T03:47:53;101960.88;;;3.62;91.11
61086;BME280;46967;48.876;2.136;2023-03-20T03:50:40;101953.22;;;3.65;91.80
61086;BME280;46967;48.876;2.136;2023-03-20T03:53:13;101946.41;;;3.69;91.96
61086;BME280;46967;48.876;2.136;2023-03-20T03:55:45;101949.13;;;3.76;92.39
61086;BME280;46967;48.876;2.136;2023-03-20T03:58:18;101944.91;;;3.81;92.28
61086;BME280;46967;48.876;2.136;2023-03-20T04:00:47;101958.69;;;3.87;92.54
61086;BME280;46967;48.876;2.136;2023-03-20T04:03:15;101953.66;;;3.93;92.27
61086;BME280;46967;48.876;2.136;2023-03-20T04:05:42;101953.72;;;3.97;92.50
61086;BME280;46967;48.876;2.136;2023-03-20T04:08:09;101965.78;;;4.00;92.63
61086;BME280;46967;48.876;2.136;2023-03-20T04:10:34;101970.06;;;4.03;92.99
61086;BME280;46967;48.876;2.136;2023-03-20T04:13:00;101971.84;;;4.05;92.99
61086;BME280;46967;48.876;2.136;2023-03-20T04:15:25;101973.59;;;4.06;92.97
61086;BME280;46967;48.876;2.136;2023-03-20T04:17:52;101971.91;;;4.08;92.87
61086;BME280;46967;48.876;2.136;2023-03-20T04:20:17;101977.88;;;4.09;92.82
61086;BME280;46967;48.876;2.136;2023-03-20T04:22:43;101977.94;;;4.12;92.90
61086;BME280;46967;48.876;2.136;2023-03-20T04:25:18;101981.38;;;4.12;92.80
61086;BME280;46967;48.876;2.136;2023-03-20T04:27:43;101990.81;;;4.13;92.38
61086;BME280;46967;48.876;2.136;2023-03-20T04:30:09;101986.53;;;4.14;92.57
61086;BME280;46967;48.876;2.136;2023-03-20T04:32:35;101989.16;;;4.18;92.18
61086;BME280;46967;48.876;2.136;2023-03-20T04:35:00;101984.88;;;4.17;92.09
61086;BME280;46967;48.876;2.136;2023-03-20T04:37:26;101985.72;;;4.16;91.93
61086;BME280;46967;48.876;2.136;2023-03-20T04:39:51;101990.00;;;4.16;92.25
61086;BME280;46967;48.876;2.136;2023-03-20T04:42:17;101985.69;;;4.15;92.49
61086;BME280;46967;48.876;2.136;2023-03-20T04:44:42;101978.00;;;4.16;92.30
61086;BME280;46967;48.876;2.136;2023-03-20T04:47:08;101976.28;;;4.17;92.18
61086;BME280;46967;48.876;2.136;2023-03-20T04:49:33;101973.72;;;4.17;92.61
61086;BME280;46967;48.876;2.136;2023-03-20T04:51:58;101975.47;;;4.18;92.73
61086;BME280;46967;48.876;2.136;2023-03-20T04:54:24;101972.91;;;4.18;93.18
61086;BME280;46967;48.876;2.136;2023-03-20T04:56:49;101970.41;;;4.23;93.40
61086;BME280;46967;48.876;2.136;2023-03-20T04:59:14;101970.44;;;4.26;92.98
61086;BME280;46967;48.876;2.136;2023-03-20T05:01:40;101968.78;;;4.29;92.89
61086;BME280;46967;48.876;2.136;2023-03-20T05:04:05;101966.34;;;4.39;92.11
61086;BME280;46967;48.876;2.136;2023-03-20T05:06:31;101970.81;;;4.50;91.46
61086;BME280;46967;48.876;2.136;2023-03-20T05:08:57;101969.97;;;4.53;91.18
61086;BME280;46967;48.876;2.136;2023-03-20T05:11:24;101967.50;;;4.61;90.27
61086;BME280;46967;48.876;2.136;2023-03-20T05:13:50;101981.28;;;4.66;90.36
61086;BME280;46967;48.876;2.136;2023-03-20T05:16:15;101977.91;;;4.68;90.95
61086;BME280;46967;48.876;2.136;2023-03-20T05:18:41;101979.66;;;4.72;90.98
61086;BME280;46967;48.876;2.136;2023-03-20T05:21:07;101974.59;;;4.79;90.97
61086;BME280;46967;48.876;2.136;2023-03-20T05:23:32;101967.81;;;4.84;90.99
61086;BME280;46967;48.876;2.136;2023-03-20T05:25:58;101966.13;;;4.86;91.28
61086;BME280;46967;48.876;2.136;2023-03-20T05:28:23;101954.16;;;4.89;91.72
61086;BME280;46967;48.876;2.136;2023-03-20T05:30:48;101955.03;;;4.92;91.52
61086;BME280;46967;48.876;2.136;2023-03-20T05:33:14;101956.81;;;4.96;91.64
61086;BME280;46967;48.876;2.136;2023-03-20T05:35:39;101959.41;;;4.99;91.32
61086;BME280;46967;48.876;2.136;2023-03-20T05:38:05;101958.59;;;5.01;91.41
61086;BME280;46967;48.876;2.136;2023-03-20T05:40:30;101958.63;;;5.03;91.38
61086;BME280;46967;48.876;2.136;2023-03-20T05:42:56;101961.19;;;5.03;91.44
61086;BME280;46967;48.876;2.136;2023-03-20T05:45:21;101966.38;;;5.06;91.50
61086;BME280;46967;48.876;2.136;2023-03-20T05:47:47;101962.06;;;5.05;91.83
61086;BME280;46967;48.876;2.136;2023-03-20T05:50:12;101963.81;;;5.07;91.68
61086;BME280;46967;48.876;2.136;2023-03-20T05:52:38;101969.88;;;5.13;91.77
61086;BME280;46967;48.876;2.136;2023-03-20T05:55:04;101968.16;;;5.13;92.00
61086;BME280;46967;48.876;2.136;2023-03-20T05:57:30;101971.63;;;5.17;92.02
61086;BME280;46967;48.876;2.136;2023-03-20T05:59:55;101970.81;;;5.21;91.53
61086;BME280;46967;48.876;2.136;2023-03-20T06:02:21;101972.59;;;5.25;90.51
61086;BME280;46967;48.876;2.136;2023-03-20T06:04:46;101978.59;;;5.27;90.01
61086;BME280;46967;48.876;2.136;2023-03-20T06:07:12;101971.75;;;5.28;89.97
61086;BME280;46967;48.876;2.136;2023-03-20T06:09:37;101978.66;;;5.32;88.75
61086;BME280;46967;48.876;2.136;2023-03-20T06:12:02;101983.84;;;5.35;88.17
61086;BME280;46967;48.876;2.136;2023-03-20T06:14:28;101977.03;;;5.41;87.71
61086;BME280;46967;48.876;2.136;2023-03-20T06:16:53;101979.66;;;5.44;87.81
61086;BME280;46967;48.876;2.136;2023-03-20T06:19:19;101982.28;;;5.49;87.89
61086;BME280;46967;48.876;2.136;2023-03-20T06:21:46;101989.16;;;5.53;87.97
61086;BME280;46967;48.876;2.136;2023-03-20T06:24:12;101990.91;;;5.56;87.96
61086;BME280;46967;48.876;2.136;2023-03-20T06:26:37;101989.25;;;5.61;87.28
61086;BME280;46967;48.876;2.136;2023-03-20T06:29:02;101987.56;;;5.65;87.76
61086;BME280;46967;48.876;2.136;2023-03-20T06:31:28;101984.22;;;5.73;87.94
61086;BME280;46967;48.876;2.136;2023-03-20T06:33:53;101969.66;;;5.78;89.23
61086;BME280;46967;48.876;2.136;2023-03-20T06:36:19;101970.56;;;5.82;89.63
61086;BME280;46967;48.876;2.136;2023-03-20T06:38:44;101961.16;;;5.87;89.86
61086;BME280;46967;48.876;2.136;2023-03-20T06:41:10;101966.34;;;5.92;89.02
61086;BME280;46967;48.876;2.136;2023-03-20T06:43:35;101967.22;;;5.95;88.06
61086;BME280;46967;48.876;2.136;2023-03-20T06:46:01;101964.69;;;5.97;85.76
61086;BME280;46967;48.876;2.136;2023-03-20T06:48:26;101960.41;;;6.01;85.51
61086;BME280;46967;48.876;2.136;2023-03-20T06:50:52;101956.13;;;6.04;84.95
61086;BME280;46967;48.876;2.136;2023-03-20T06:53:17;101955.31;;;6.08;84.20
61086;BME280;46967;48.876;2.136;2023-03-20T06:55:47;101953.59;;;6.09;83.82
61086;BME280;46967;48.876;2.136;2023-03-20T06:58:13;101962.25;;;6.15;83.57
61086;BME280;46967;48.876;2.136;2023-03-20T07:00:40;101959.69;;;6.22;83.20
61086;BME280;46967;48.876;2.136;2023-03-20T07:03:06;101964.06;;;6.32;82.32
61086;BME280;46967;48.876;2.136;2023-03-20T07:05:31;101970.94;;;6.28;82.42
61086;BME280;46967;48.876;2.136;2023-03-20T07:07:58;101962.38;;;6.39;80.49
61086;BME280;46967;48.876;2.136;2023-03-20T07:10:23;101973.59;;;6.45;80.39
61086;BME280;46967;48.876;2.136;2023-03-20T07:12:49;101959.06;;;6.60;79.86
61086;BME280;46967;48.876;2.136;2023-03-20T07:15:15;101965.97;;;6.65;79.17
61086;BME280;46967;48.876;2.136;2023-03-20T07:17:41;101967.72;;;6.66;79.02
61086;BME280;46967;48.876;2.136;2023-03-20T07:20:07;101966.06;;;6.79;78.19
61086;BME280;46967;48.876;2.136;2023-03-20T07:22:33;101959.16;;;6.78;78.19
61086;BME280;46967;48.876;2.136;2023-03-20T07:24:58;101962.63;;;6.83;77.82
61086;BME280;46967;48.876;2.136;2023-03-20T07:27:24;101972.06;;;6.81;77.06
61086;BME280;46967;48.876;2.136;2023-03-20T07:29:49;101972.09;;;6.87;77.25
61086;BME280;46967;48.876;2.136;2023-03-20T07:32:14;101972.13;;;6.89;77.48
61086;BME280;46967;48.876;2.136;2023-03-20T07:34:41;101985.09;;;7.04;76.85
61086;BME280;46967;48.876;2.136;2023-03-20T07:37:06;101973.03;;;7.05;77.14
61086;BME280;46967;48.876;2.136;2023-03-20T07:39:31;101975.63;;;7.05;77.91
61086;BME280;46967;48.876;2.136;2023-03-20T07:41:57;101983.41;;;7.16;76.95
61086;BME280;46967;48.876;2.136;2023-03-20T07:44:22;101969.66;;;7.28;76.43
61086;BME280;46967;48.876;2.136;2023-03-20T07:46:48;101976.56;;;7.30;76.69
61086;BME280;46967;48.876;2.136;2023-03-20T07:49:14;101970.53;;;7.43;75.63
61086;BME280;46967;48.876;2.136;2023-03-20T07:51:45;101969.69;;;7.46;75.92
61086;BME280;46967;48.876;2.136;2023-03-20T07:54:11;101968.81;;;7.53;75.63
61086;BME280;46967;48.876;2.136;2023-03-20T07:56:37;101960.25;;;7.67;74.62
61086;BME280;46967;48.876;2.136;2023-03-20T07:59:03;101961.09;;;7.66;74.97
61086;BME280;46967;48.876;2.136;2023-03-20T08:01:28;101957.69;;;7.76;74.50
61086;BME280;46967;48.876;2.136;2023-03-20T08:03:54;101956.81;;;7.88;74.41
61086;BME280;46967;48.876;2.136;2023-03-20T08:06:20;101966.28;;;7.98;73.83
61086;BME280;46967;48.876;2.136;2023-03-20T08:08:45;101968.84;;;8.10;73.12
61086;BME280;46967;48.876;2.136;2023-03-20T08:11:11;101975.75;;;8.07;74.01
61086;BME280;46967;48.876;2.136;2023-03-20T08:13:36;101975.75;;;8.16;72.96
61086;BME280;46967;48.876;2.136;2023-03-20T08:16:02;101972.31;;;8.26;71.92
61086;BME280;46967;48.876;2.136;2023-03-20T08:18:28;101980.91;;;8.25;72.14
61086;BME280;46967;48.876;2.136;2023-03-20T08:20:53;101986.06;;;8.39;72.72
61086;BME280;46967;48.876;2.136;2023-03-20T08:23:19;101979.19;;;8.52;72.97
61086;BME280;46967;48.876;2.136;2023-03-20T08:25:48;101986.03;;;8.65;72.78
61086;BME280;46967;48.876;2.136;2023-03-20T08:28:14;101995.50;;;8.77;72.65
61086;BME280;46967;48.876;2.136;2023-03-20T08:30:40;102003.19;;;8.89;71.83
61086;BME280;46967;48.876;2.136;2023-03-20T08:33:05;101990.19;;;9.08;71.11
61086;BME280;46967;48.876;2.136;2023-03-20T08:35:31;102004.84;;;9.17;70.93
61086;BME280;46967;48.876;2.136;2023-03-20T08:37:56;102004.78;;;9.23;70.49
61086;BME280;46967;48.876;2.136;2023-03-20T08:40:22;102008.19;;;9.36;70.24
61086;BME280;46967;48.876;2.136;2023-03-20T08:42:47;102004.66;;;9.46;70.08
61086;BME280;46967;48.876;2.136;2023-03-20T08:45:13;102004.63;;;9.51;70.87
61086;BME280;46967;48.876;2.136;2023-03-20T08:47:38;102007.16;;;9.60;69.88
61086;BME280;46967;48.876;2.136;2023-03-20T08:50:04;102002.78;;;9.67;70.13
61086;BME280;46967;48.876;2.136;2023-03-20T08:52:31;102006.13;;;9.83;70.26
61086;BME280;46967;48.876;2.136;2023-03-20T08:54:57;101994.78;;;9.97;70.81
61086;BME280;46967;48.876;2.136;2023-03-20T08:57:22;101995.47;;;10.16;70.25
61086;BME280;46967;48.876;2.136;2023-03-20T08:59:47;101994.59;;;10.19;70.50
61086;BME280;46967;48.876;2.136;2023-03-20T09:02:13;101994.50;;;10.35;68.49
61086;BME280;46967;48.876;2.136;2023-03-20T09:04:38;101997.03;;;10.41;67.92
61086;BME280;46967;48.876;2.136;2023-03-20T09:07:03;101986.59;;;10.47;67.52
61086;BME280;46967;48.876;2.136;2023-03-20T09:09:29;101983.94;;;10.53;67.65
61086;BME280;46967;48.876;2.136;2023-03-20T09:11:55;101975.25;;;10.54;68.92
61086;BME280;46967;48.876;2.136;2023-03-20T09:14:22;101973.41;;;10.64;68.33
61086;BME280;46967;48.876;2.136;2023-03-20T09:16:48;101975.81;;;10.79;68.34
61086;BME280;46967;48.876;2.136;2023-03-20T09:19:14;101965.28;;;10.93;67.39
61086;BME280;46967;48.876;2.136;2023-03-20T09:21:39;101958.19;;;11.06;67.46
61086;BME280;46967;48.876;2.136;2023-03-20T09:24:05;101964.94;;;11.18;66.58
61086;BME280;46967;48.876;2.136;2023-03-20T09:26:30;101965.75;;;11.23;65.33
61086;BME280;46967;48.876;2.136;2023-03-20T09:28:56;101963.28;;;11.14;65.15
61086;BME280;46967;48.876;2.136;2023-03-20T09:31:21;101970.22;;;11.10;64.92
61086;BME280;46967;48.876;2.136;2023-03-20T09:33:47;101963.25;;;11.15;63.42
61086;BME280;46967;48.876;2.136;2023-03-20T09:36:13;101974.16;;;11.40;63.41
61086;BME280;46967;48.876;2.136;2023-03-20T09:38:40;101976.59;;;11.50;61.49
61086;BME280;46967;48.876;2.136;2023-03-20T09:41:29;101974.66;;;11.66;62.06
61086;BME280;46967;48.876;2.136;2023-03-20T09:52:04;101981.88;;;12.03;59.34
61086;BME280;46967;48.876;2.136;2023-03-20T09:54:40;101982.44;;;12.20;58.29
61086;BME280;46967;48.876;2.136;2023-03-20T09:57:20;101973.41;;;12.38;58.39
61086;BME280;46967;48.876;2.136;2023-03-20T09:59:47;101982.28;;;12.29;57.43
61086;BME280;46967;48.876;2.136;2023-03-20T10:02:19;101978.84;;;12.26;57.38
61086;BME280;46967;48.876;2.136;2023-03-20T10:04:50;101976.06;;;12.37;57.65
61086;BME280;46967;48.876;2.136;2023-03-20T10:07:17;101967.63;;;12.22;57.45
61086;BME280;46967;48.876;2.136;2023-03-20T10:09:43;101974.03;;;12.51;59.26
61086;BME280;46967;48.876;2.136;2023-03-20T10:15:20;101963.19;;;12.74;57.63
61086;BME280;46967;48.876;2.136;2023-03-20T10:18:04;101950.72;;;12.89;57.48
61086;BME280;46967;48.876;2.136;2023-03-20T10:20:42;101948.75;;;13.00;55.71
61086;BME280;46967;48.876;2.136;2023-03-20T10:23:34;101948.59;;;13.06;56.22
61086;BME280;46967;48.876;2.136;2023-03-20T10:26:11;101941.63;;;13.07;55.16
61086;BME280;46967;48.876;2.136;2023-03-20T10:28:44;101946.03;;;13.04;56.25
61086;BME280;46967;48.876;2.136;2023-03-20T10:33:55;101933.84;;;13.46;55.08
61086;BME280;46967;48.876;2.136;2023-03-20T10:39:17;101944.53;;;13.71;55.23
61086;BME280;46967;48.876;2.136;2023-03-20T10:41:54;101935.00;;;13.68;54.95
61086;BME280;46967;48.876;2.136;2023-03-20T10:44:36;101930.56;;;13.37;55.82
61086;BME280;46967;48.876;2.136;2023-03-20T10:47:05;101937.72;;;13.64;56.26
61086;BME280;46967;48.876;2.136;2023-03-20T10:50:09;101941.19;;;13.66;55.16
61086;BME280;46967;48.876;2.136;2023-03-20T10:52:35;101939.59;;;13.58;55.24
61086;BME280;46967;48.876;2.136;2023-03-20T10:55:05;101933.34;;;13.66;55.17
61086;BME280;46967;48.876;2.136;2023-03-20T10:57:35;101933.22;;;13.72;55.39
61086;BME280;46967;48.876;2.136;2023-03-20T11:00:04;101936.41;;;13.83;55.07
61086;BME280;46967;48.876;2.136;2023-03-20T11:02:35;101934.63;;;13.84;53.76
61086;BME280;46967;48.876;2.136;2023-03-20T11:05:20;101933.22;;;13.72;54.61
61086;BME280;46967;48.876;2.136;2023-03-20T11:07:49;101922.13;;;13.62;55.09
61086;BME280;46967;48.876;2.136;2023-03-20T11:10:15;101922.22;;;13.57;55.11
61086;BME280;46967;48.876;2.136;2023-03-20T11:12:42;101914.63;;;13.50;55.56
61086;BME280;46967;48.876;2.136;2023-03-20T11:15:17;101917.28;;;13.48;56.72
61086;BME280;46967;48.876;2.136;2023-03-20T11:17:56;101913.59;;;13.55;56.38
61086;BME280;46967;48.876;2.136;2023-03-20T11:20:22;101916.63;;;13.37;56.21
61086;BME280;46967;48.876;2.136;2023-03-20T11:22:49;101913.41;;;13.26;57.42
61086;BME280;46967;48.876;2.136;2023-03-20T11:25:33;101924.00;;;13.18;57.51
61086;BME280;46967;48.876;2.136;2023-03-20T11:28:19;101917.78;;;13.25;56.97
61086;BME280;46967;48.876;2.136;2023-03-20T11:30:46;101908.50;;;13.13;57.30
61086;BME280;46967;48.876;2.136;2023-03-20T11:33:12;101908.94;;;13.34;57.15
61086;BME280;46967;48.876;2.136;2023-03-20T11:35:44;101903.53;;;13.40;56.73
61086;BME280;46967;48.876;2.136;2023-03-20T11:38:15;101897.44;;;13.41;57.69
61086;BME280;46967;48.876;2.136;2023-03-20T11:40:42;101904.22;;;13.48;57.22
61086;BME280;46967;48.876;2.136;2023-03-20T11:43:18;101906.53;;;13.59;57.17
61086;BME280;46967;48.876;2.136;2023-03-20T11:45:45;101905.41;;;13.71;57.78
61086;BME280;46967;48.876;2.136;2023-03-20T11:48:20;101907.63;;;13.86;57.37
61086;BME280;46967;48.876;2.136;2023-03-20T11:50:58;101905.59;;;13.98;56.87
61086;BME280;46967;48.876;2.136;2023-03-20T11:53:31;101902.69;;;14.08;57.22
61086;BME280;46967;48.876;2.136;2023-03-20T11:56:07;101908.44;;;14.21;56.39
61086;BME280;46967;48.876;2.136;2023-03-20T11:58:37;101905.38;;;14.37;55.08
61086;BME280;46967;48.876;2.136;2023-03-20T12:01:04;101897.50;;;14.38;55.21
61086;BME280;46967;48.876;2.136;2023-03-20T12:03:36;101892.13;;;14.43;55.28
61086;BME280;46967;48.876;2.136;2023-03-20T12:06:12;101895.63;;;14.43;56.03
61086;BME280;46967;48.876;2.136;2023-03-20T12:08:39;101880.38;;;14.59;55.63
61086;BME280;46967;48.876;2.136;2023-03-20T12:11:20;101877.78;;;14.58;54.39
61086;BME280;46967;48.876;2.136;2023-03-20T12:13:49;101886.38;;;14.63;55.13
61086;BME280;46967;48.876;2.136;2023-03-20T12:16:17;101882.56;;;14.73;54.47
61086;BME280;46967;48.876;2.136;2023-03-20T12:18:48;101880.41;;;14.88;54.33
61086;BME280;46967;48.876;2.136;2023-03-20T12:21:24;101871.28;;;15.01;56.01
61086;BME280;46967;48.876;2.136;2023-03-20T12:24:12;101873.16;;;14.97;54.79
61086;BME280;46967;48.876;2.136;2023-03-20T12:26:50;101885.81;;;15.10;54.77
61086;BME280;46967;48.876;2.136;2023-03-20T12:29:27;101877.22;;;15.06;54.22
61086;BME280;46967;48.876;2.136;2023-03-20T12:32:18;101857.38;;;15.00;53.35
61086;BME280;46967;48.876;2.136;2023-03-20T12:34:51;101869.19;;;15.12;55.12
61086;BME280;46967;48.876;2.136;2023-03-20T12:37:20;101860.13;;;14.96;53.94
61086;BME280;46967;48.876;2.136;2023-03-20T12:39:52;101856.53;;;14.98;54.38
61086;BME280;46967;48.876;2.136;2023-03-20T12:45:19;101852.84;;;14.77;53.06
61086;BME280;46967;48.876;2.136;2023-03-20T12:48:05;101863.41;;;14.74;55.00
61086;BME280;46967;48.876;2.136;2023-03-20T12:50:44;101864.78;;;14.56;55.38
61086;BME280;46967;48.876;2.136;2023-03-20T13:01:59;101850.66;;;14.63;56.38
61086;BME280;46967;48.876;2.136;2023-03-20T13:10:22;101851.84;;;14.52;56.10
61086;BME280;46967;48.876;2.136;2023-03-20T13:20:56;101842.16;;;14.85;55.70
61086;BME280;46967;48.876;2.136;2023-03-20T13:23:38;101841.19;;;14.88;55.83
61086;BME280;46967;48.876;2.136;2023-03-20T13:37:18;101833.13;;;14.95;55.48
61086;BME280;46967;48.876;2.136;2023-03-20T13:39:59;101830.59;;;14.92;55.63
61086;BME280;46967;48.876;2.136;2023-03-20T13:42:36;101821.97;;;14.90;54.80
61086;BME280;46967;48.876;2.136;2023-03-20T13:45:19;101818.50;;;14.90;56.33
61086;BME280;46967;48.876;2.136;2023-03-20T13:47:46;101813.50;;;14.82;56.52
61086;BME280;46967;48.876;2.136;2023-03-20T13:50:32;101807.63;;;14.75;56.93
61086;BME280;46967;48.876;2.136;2023-03-20T13:55:46;101795.91;;;14.87;56.20
61086;BME280;46967;48.876;2.136;2023-03-20T13:58:26;101802.88;;;15.15;56.06
61086;BME280;46967;48.876;2.136;2023-03-20T14:03:50;101793.41;;;15.37;55.52
61086;BME280;46967;48.876;2.136;2023-03-20T14:08:53;101791.22;;;15.50;56.03
61086;BME280;46967;48.876;2.136;2023-03-20T14:13:50;101781.22;;;15.62;58.20
61086;BME280;46967;48.876;2.136;2023-03-20T14:16:18;101784.63;;;15.64;55.90
61086;BME280;46967;48.876;2.136;2023-03-20T14:18:49;101782.53;;;15.50;56.64
61086;BME280;46967;48.876;2.136;2023-03-20T14:21:27;101790.88;;;15.34;56.78
61086;BME280;46967;48.876;2.136;2023-03-20T14:23:59;101780.44;;;15.34;56.29
61086;BME280;46967;48.876;2.136;2023-03-20T14:26:28;101774.81;;;15.20;57.39
61086;BME280;46967;48.876;2.136;2023-03-20T14:29:19;101772.88;;;15.25;59.02
61086;BME280;46967;48.876;2.136;2023-03-20T14:31:49;101767.41;;;15.33;58.35
61086;BME280;46967;48.876;2.136;2023-03-20T14:34:24;101765.88;;;15.26;58.18
61086;BME280;46967;48.876;2.136;2023-03-20T14:36:57;101770.44;;;15.20;58.20
61086;BME280;46967;48.876;2.136;2023-03-20T14:50:25;101756.56;;;15.44;59.18
61086;BME280;46967;48.876;2.136;2023-03-20T15:01:23;101748.03;;;15.13;59.51
61086;BME280;46967;48.876;2.136;2023-03-20T15:03:56;101740.28;;;15.10;59.45
61086;BME280;46967;48.876;2.136;2023-03-20T15:06:25;101741.47;;;15.00;59.84